createdAt,value
2018-10-05T05:04:09.217Z,69.20
2018-10-05T05:05:08.938Z,69.50
2018-10-05T05:06:08.991Z,69.13
2018-10-05T05:07:08.933Z,69.74
2018-10-05T05:08:08.889Z,69.64
2018-10-05T05:09:08.868Z,69.43
2018-10-05T05:10:08.852Z,71.26
2018-10-05T05:11:08.830Z,69.74
2018-10-05T05:12:08.897Z,69.43
2018-10-05T05:13:08.831Z,70.14
2018-10-05T05:14:08.806Z,70.14
2018-10-05T05:15:08.793Z,69.94
2018-10-05T05:16:08.791Z,70.04
2018-10-05T05:17:08.890Z,69.64
2018-10-05T05:18:08.798Z,70.14
2018-10-05T05:19:08.750Z,69.33
2018-10-05T05:20:08.742Z,69.53
2018-10-05T05:21:08.760Z,69.43
2018-10-05T05:22:08.717Z,69.53
2018-10-05T05:23:08.735Z,69.43
2018-10-05T05:24:08.750Z,69.23
2018-10-05T05:25:08.691Z,69.33
2018-10-05T05:26:08.697Z,69.64
2018-10-05T05:27:08.664Z,69.53
2018-10-05T05:28:08.672Z,70.25
2018-10-05T05:29:08.658Z,69.64
2018-10-05T05:30:08.668Z,69.74
2018-10-05T07:38:42.442Z,36.33
2018-10-05T10:07:29.865Z,24.32
2018-10-05T10:08:29.908Z,24.22
2018-10-05T10:09:29.767Z,24.13
2018-10-05T10:10:29.800Z,24.33
2018-10-05T10:11:29.755Z,24.86
2018-10-05T10:12:29.712Z,25.46
2018-10-05T10:13:29.765Z,25.07
2018-10-05T10:14:29.688Z,25.35
2018-10-05T10:15:29.724Z,25.15
2018-10-05T10:16:29.676Z,25.83
2018-10-05T10:17:29.697Z,25.04
2018-10-05T10:18:29.652Z,24.73
2018-10-05T10:19:29.643Z,24.52
2018-10-05T10:20:29.632Z,24.12
2018-10-05T10:21:29.652Z,24.51
2018-10-05T10:22:29.680Z,24.69
2018-10-05T10:23:29.608Z,24.00
2018-10-05T10:24:29.593Z,24.21
2018-10-05T10:25:29.579Z,24.32
2018-10-05T10:26:29.615Z,24.92
2018-10-05T10:27:29.597Z,25.32
2018-10-05T10:28:29.701Z,25.31
2018-10-05T10:29:29.635Z,25.15
2018-10-05T10:30:29.529Z,27.81
2018-10-05T10:31:29.540Z,28.75
2018-10-05T10:32:29.507Z,30.57
2018-10-05T10:33:29.503Z,29.52
2018-10-05T10:34:29.574Z,28.29
2018-10-05T10:35:29.485Z,26.68
